sensor_id;sensor_type;location;lat;lon;timestamp;P1;durP1;ratioP1;P2;durP2;ratioP2
13590;SDS011;6866;50.778;7.206;2022-07-19T00:02:23;4.18;;;2.08;;
13590;SDS011;6866;50.778;7.206;2022-07-19T00:04:48;7.07;;;2.53;;
13590;SDS011;6866;50.778;7.206;2022-07-19T00:07:14;9.07;;;2.47;;
13590;SDS011;6866;50.778;7.206;2022-07-19T00:09:39;6.78;;;2.40;;
13590;SDS011;6866;50.778;7.206;2022-07-19T00:12:05;7.10;;;2.40;;
13590;SDS011;6866;50.778;7.206;2022-07-19T00:14:31;6.00;;;2.30;;
13590;SDS011;6866;50.778;7.206;2022-07-19T00:16:56;7.63;;;2.22;;
13590;SDS011;6866;50.778;7.206;2022-07-19T00:19:22;4.72;;;2.33;;
13590;SDS011;6866;50.778;7.206;2022-07-19T00:21:47;5.10;;;2.10;;
13590;SDS011;6866;50.778;7.206;2022-07-19T00:24:13;5.28;;;2.22;;
13590;SDS011;6866;50.778;7.206;2022-07-19T00:26:39;5.80;;;1.95;;
13590;SDS011;6866;50.778;7.206;2022-07-19T00:29:04;7.47;;;2.50;;
13590;SDS011;6866;50.778;7.206;2022-07-19T00:31:30;7.47;;;2.17;;
13590;SDS011;6866;50.778;7.206;2022-07-19T00:33:56;10.50;;;2.38;;
13590;SDS011;6866;50.778;7.206;2022-07-19T00:36:21;6.57;;;2.60;;
13590;SDS011;6866;50.778;7.206;2022-07-19T00:38:47;5.22;;;1.98;;
13590;SDS011;6866;50.778;7.206;2022-07-19T00:41:13;4.70;;;2.00;;
13590;SDS011;6866;50.778;7.206;2022-07-19T00:43:42;6.00;;;2.47;;
13590;SDS011;6866;50.778;7.206;2022-07-19T00:46:15;5.10;;;1.92;;
13590;SDS011;6866;50.778;7.206;2022-07-19T00:48:42;6.65;;;2.25;;
13590;SDS011;6866;50.778;7.206;2022-07-19T00:51:14;6.47;;;2.35;;
13590;SDS011;6866;50.778;7.206;2022-07-19T00:53:41;4.22;;;2.05;;
13590;SDS011;6866;50.778;7.206;2022-07-19T00:56:09;4.70;;;2.30;;
13590;SDS011;6866;50.778;7.206;2022-07-19T00:58:36;8.50;;;2.42;;
13590;SDS011;6866;50.778;7.206;2022-07-19T01:03:39;5.47;;;2.35;;
13590;SDS011;6866;50.778;7.206;2022-07-19T01:06:05;3.83;;;2.10;;
13590;SDS011;6866;50.778;7.206;2022-07-19T01:08:32;5.93;;;2.13;;
13590;SDS011;6866;50.778;7.206;2022-07-19T01:10:58;4.05;;;2.22;;
13590;SDS011;6866;50.778;7.206;2022-07-19T01:13:24;4.55;;;2.10;;
13590;SDS011;6866;50.778;7.206;2022-07-19T01:15:49;5.55;;;1.75;;
13590;SDS011;6866;50.778;7.206;2022-07-19T01:18:15;8.93;;;2.22;;
13590;SDS011;6866;50.778;7.206;2022-07-19T01:20:41;6.45;;;2.40;;
13590;SDS011;6866;50.778;7.206;2022-07-19T01:23:06;6.32;;;2.10;;
13590;SDS011;6866;50.778;7.206;2022-07-19T01:25:33;6.25;;;2.40;;
13590;SDS011;6866;50.778;7.206;2022-07-19T01:28:02;5.35;;;2.40;;
13590;SDS011;6866;50.778;7.206;2022-07-19T01:30:28;6.05;;;2.28;;
13590;SDS011;6866;50.778;7.206;2022-07-19T01:32:54;6.07;;;2.63;;
13590;SDS011;6866;50.778;7.206;2022-07-19T01:35:21;11.43;;;2.50;;
13590;SDS011;6866;50.778;7.206;2022-07-19T01:37:46;6.00;;;2.55;;
13590;SDS011;6866;50.778;7.206;2022-07-19T01:40:13;8.43;;;2.40;;
13590;SDS011;6866;50.778;7.206;2022-07-19T01:42:40;8.13;;;2.35;;
13590;SDS011;6866;50.778;7.206;2022-07-19T01:45:06;5.53;;;2.63;;
13590;SDS011;6866;50.778;7.206;2022-07-19T01:47:33;4.90;;;2.15;;
13590;SDS011;6866;50.778;7.206;2022-07-19T01:49:59;7.32;;;2.33;;
13590;SDS011;6866;50.778;7.206;2022-07-19T01:52:25;6.22;;;2.30;;
13590;SDS011;6866;50.778;7.206;2022-07-19T01:54:51;4.85;;;2.00;;
13590;SDS011;6866;50.778;7.206;2022-07-19T01:57:16;5.95;;;2.20;;
13590;SDS011;6866;50.778;7.206;2022-07-19T01:59:42;5.88;;;2.28;;
13590;SDS011;6866;50.778;7.206;2022-07-19T02:02:07;5.80;;;2.20;;
13590;SDS011;6866;50.778;7.206;2022-07-19T02:04:33;5.88;;;2.30;;
13590;SDS011;6866;50.778;7.206;2022-07-19T02:06:59;7.43;;;2.47;;
13590;SDS011;6866;50.778;7.206;2022-07-19T02:09:25;4.57;;;2.30;;
13590;SDS011;6866;50.778;7.206;2022-07-19T02:11:51;5.75;;;2.42;;
13590;SDS011;6866;50.778;7.206;2022-07-19T02:14:17;5.35;;;2.30;;
13590;SDS011;6866;50.778;7.206;2022-07-19T02:16:43;4.22;;;2.20;;
13590;SDS011;6866;50.778;7.206;2022-07-19T02:19:09;4.50;;;2.22;;
13590;SDS011;6866;50.778;7.206;2022-07-19T02:21:35;5.97;;;2.15;;
13590;SDS011;6866;50.778;7.206;2022-07-19T02:24:01;4.10;;;2.10;;
13590;SDS011;6866;50.778;7.206;2022-07-19T02:26:28;6.07;;;2.60;;
13590;SDS011;6866;50.778;7.206;2022-07-19T02:28:53;4.78;;;2.10;;
13590;SDS011;6866;50.778;7.206;2022-07-19T02:31:19;3.95;;;2.13;;
13590;SDS011;6866;50.778;7.206;2022-07-19T02:33:45;9.38;;;2.45;;
13590;SDS011;6866;50.778;7.206;2022-07-19T02:36:11;4.18;;;2.20;;
13590;SDS011;6866;50.778;7.206;2022-07-19T02:38:36;4.55;;;2.20;;
13590;SDS011;6866;50.778;7.206;2022-07-19T02:41:03;6.15;;;2.70;;
13590;SDS011;6866;50.778;7.206;2022-07-19T02:43:28;5.05;;;2.22;;
13590;SDS011;6866;50.778;7.206;2022-07-19T02:45:54;7.03;;;2.58;;
13590;SDS011;6866;50.778;7.206;2022-07-19T02:48:20;5.20;;;2.10;;
13590;SDS011;6866;50.778;7.206;2022-07-19T02:50:45;4.85;;;2.75;;
13590;SDS011;6866;50.778;7.206;2022-07-19T02:53:11;7.20;;;2.30;;
13590;SDS011;6866;50.778;7.206;2022-07-19T02:55:36;4.95;;;2.40;;
13590;SDS011;6866;50.778;7.206;2022-07-19T02:58:02;5.93;;;2.38;;
13590;SDS011;6866;50.778;7.206;2022-07-19T03:00:28;7.60;;;2.38;;
13590;SDS011;6866;50.778;7.206;2022-07-19T03:02:54;7.03;;;2.50;;
13590;SDS011;6866;50.778;7.206;2022-07-19T03:05:19;5.05;;;2.67;;
13590;SDS011;6866;50.778;7.206;2022-07-19T03:07:45;4.43;;;2.17;;
13590;SDS011;6866;50.778;7.206;2022-07-19T03:10:11;6.22;;;2.13;;
13590;SDS011;6866;50.778;7.206;2022-07-19T03:12:37;8.82;;;2.33;;
13590;SDS011;6866;50.778;7.206;2022-07-19T03:15:02;4.43;;;2.13;;
13590;SDS011;6866;50.778;7.206;2022-07-19T03:17:28;4.95;;;2.30;;
13590;SDS011;6866;50.778;7.206;2022-07-19T03:19:54;6.18;;;2.00;;
13590;SDS011;6866;50.778;7.206;2022-07-19T03:22:19;4.82;;;2.08;;
13590;SDS011;6866;50.778;7.206;2022-07-19T03:24:45;8.73;;;2.55;;
13590;SDS011;6866;50.778;7.206;2022-07-19T03:27:10;7.45;;;2.20;;
13590;SDS011;6866;50.778;7.206;2022-07-19T03:29:36;5.38;;;2.17;;
13590;SDS011;6866;50.778;7.206;2022-07-19T03:32:01;4.72;;;2.42;;
13590;SDS011;6866;50.778;7.206;2022-07-19T03:34:27;5.88;;;2.40;;
13590;SDS011;6866;50.778;7.206;2022-07-19T03:36:55;5.82;;;2.60;;
13590;SDS011;6866;50.778;7.206;2022-07-19T03:39:21;6.25;;;2.47;;
13590;SDS011;6866;50.778;7.206;2022-07-19T03:41:47;7.97;;;2.70;;
13590;SDS011;6866;50.778;7.206;2022-07-19T03:44:12;6.18;;;2.28;;
13590;SDS011;6866;50.778;7.206;2022-07-19T03:46:38;6.50;;;2.30;;
13590;SDS011;6866;50.778;7.206;2022-07-19T03:49:04;6.13;;;2.30;;
13590;SDS011;6866;50.778;7.206;2022-07-19T03:51:29;6.28;;;2.40;;
13590;SDS011;6866;50.778;7.206;2022-07-19T03:53:55;6.10;;;2.50;;
13590;SDS011;6866;50.778;7.206;2022-07-19T03:56:20;7.93;;;2.75;;
13590;SDS011;6866;50.778;7.206;2022-07-19T03:58:47;4.70;;;2.30;;
13590;SDS011;6866;50.778;7.206;2022-07-19T04:01:13;7.20;;;2.47;;
13590;SDS011;6866;50.778;7.206;2022-07-19T04:03:39;3.78;;;1.90;;
13590;SDS011;6866;50.778;7.206;2022-07-19T04:06:05;7.05;;;2.22;;
13590;SDS011;6866;50.778;7.206;2022-07-19T04:08:31;5.03;;;2.20;;
13590;SDS011;6866;50.778;7.206;2022-07-19T04:10:57;8.15;;;2.50;;
13590;SDS011;6866;50.778;7.206;2022-07-19T04:13:23;7.20;;;2.47;;
13590;SDS011;6866;50.778;7.206;2022-07-19T04:15:48;8.48;;;2.38;;
13590;SDS011;6866;50.778;7.206;2022-07-19T04:18:14;5.70;;;2.38;;
13590;SDS011;6866;50.778;7.206;2022-07-19T04:20:39;5.88;;;2.45;;
13590;SDS011;6866;50.778;7.206;2022-07-19T04:23:05;9.45;;;2.60;;
13590;SDS011;6866;50.778;7.206;2022-07-19T04:25:30;13.85;;;3.00;;
13590;SDS011;6866;50.778;7.206;2022-07-19T04:27:56;12.18;;;3.20;;
13590;SDS011;6866;50.778;7.206;2022-07-19T04:30:21;7.45;;;2.65;;
13590;SDS011;6866;50.778;7.206;2022-07-19T04:32:47;9.95;;;3.05;;
13590;SDS011;6866;50.778;7.206;2022-07-19T04:35:13;10.70;;;3.10;;
13590;SDS011;6866;50.778;7.206;2022-07-19T04:37:41;13.55;;;3.15;;
13590;SDS011;6866;50.778;7.206;2022-07-19T04:40:06;14.95;;;3.13;;
13590;SDS011;6866;50.778;7.206;2022-07-19T04:42:32;12.27;;;3.10;;
13590;SDS011;6866;50.778;7.206;2022-07-19T04:44:58;13.70;;;3.00;;
13590;SDS011;6866;50.778;7.206;2022-07-19T04:47:24;9.93;;;3.00;;
13590;SDS011;6866;50.778;7.206;2022-07-19T04:49:49;12.65;;;3.10;;
13590;SDS011;6866;50.778;7.206;2022-07-19T04:52:15;14.02;;;3.03;;
13590;SDS011;6866;50.778;7.206;2022-07-19T04:54:40;18.33;;;3.40;;
13590;SDS011;6866;50.778;7.206;2022-07-19T04:57:06;17.92;;;3.17;;
13590;SDS011;6866;50.778;7.206;2022-07-19T04:59:31;14.82;;;3.00;;
13590;SDS011;6866;50.778;7.206;2022-07-19T05:01:57;11.73;;;3.20;;
13590;SDS011;6866;50.778;7.206;2022-07-19T05:04:22;9.20;;;2.97;;
13590;SDS011;6866;50.778;7.206;2022-07-19T05:06:48;13.23;;;3.55;;
13590;SDS011;6866;50.778;7.206;2022-07-19T05:09:16;17.50;;;3.08;;
13590;SDS011;6866;50.778;7.206;2022-07-19T05:11:43;14.52;;;3.38;;
13590;SDS011;6866;50.778;7.206;2022-07-19T05:14:09;9.07;;;3.00;;
13590;SDS011;6866;50.778;7.206;2022-07-19T05:16:35;11.38;;;3.30;;
13590;SDS011;6866;50.778;7.206;2022-07-19T05:21:26;9.70;;;3.10;;
13590;SDS011;6866;50.778;7.206;2022-07-19T05:23:51;15.23;;;3.30;;
13590;SDS011;6866;50.778;7.206;2022-07-19T05:26:17;9.65;;;3.20;;
13590;SDS011;6866;50.778;7.206;2022-07-19T05:28:42;12.00;;;3.17;;
13590;SDS011;6866;50.778;7.206;2022-07-19T05:31:08;15.95;;;2.97;;
13590;SDS011;6866;50.778;7.206;2022-07-19T05:33:33;15.63;;;3.17;;
13590;SDS011;6866;50.778;7.206;2022-07-19T05:35:59;11.48;;;3.03;;
13590;SDS011;6866;50.778;7.206;2022-07-19T05:38:25;24.77;;;3.65;;
13590;SDS011;6866;50.778;7.206;2022-07-19T05:40:50;17.90;;;3.58;;
13590;SDS011;6866;50.778;7.206;2022-07-19T05:43:16;17.73;;;3.80;;
13590;SDS011;6866;50.778;7.206;2022-07-19T05:45:42;17.58;;;3.75;;
13590;SDS011;6866;50.778;7.206;2022-07-19T05:48:07;16.55;;;3.28;;
13590;SDS011;6866;50.778;7.206;2022-07-19T05:50:33;18.05;;;3.40;;
13590;SDS011;6866;50.778;7.206;2022-07-19T05:52:59;11.07;;;3.10;;
13590;SDS011;6866;50.778;7.206;2022-07-19T05:55:24;15.45;;;3.38;;
13590;SDS011;6866;50.778;7.206;2022-07-19T05:57:50;20.45;;;4.00;;
13590;SDS011;6866;50.778;7.206;2022-07-19T06:00:15;22.05;;;3.83;;
13590;SDS011;6866;50.778;7.206;2022-07-19T06:02:41;22.85;;;3.80;;
13590;SDS011;6866;50.778;7.206;2022-07-19T06:05:07;26.15;;;4.38;;
13590;SDS011;6866;50.778;7.206;2022-07-19T06:07:33;20.48;;;3.47;;
13590;SDS011;6866;50.778;7.206;2022-07-19T06:09:58;12.07;;;3.22;;
13590;SDS011;6866;50.778;7.206;2022-07-19T06:12:24;13.88;;;3.38;;
13590;SDS011;6866;50.778;7.206;2022-07-19T06:14:49;21.08;;;3.38;;
13590;SDS011;6866;50.778;7.206;2022-07-19T06:17:15;9.82;;;2.80;;
13590;SDS011;6866;50.778;7.206;2022-07-19T06:19:40;14.25;;;2.70;;
13590;SDS011;6866;50.778;7.206;2022-07-19T06:22:06;7.97;;;2.78;;
13590;SDS011;6866;50.778;7.206;2022-07-19T06:24:31;9.05;;;2.95;;
13590;SDS011;6866;50.778;7.206;2022-07-19T06:26:57;11.73;;;3.10;;
13590;SDS011;6866;50.778;7.206;2022-07-19T06:29:22;9.45;;;2.80;;
13590;SDS011;6866;50.778;7.206;2022-07-19T06:31:48;11.73;;;2.50;;
13590;SDS011;6866;50.778;7.206;2022-07-19T06:34:13;11.40;;;3.33;;
13590;SDS011;6866;50.778;7.206;2022-07-19T06:36:39;11.10;;;2.85;;
13590;SDS011;6866;50.778;7.206;2022-07-19T06:39:04;16.05;;;3.63;;
13590;SDS011;6866;50.778;7.206;2022-07-19T06:41:30;17.00;;;3.55;;
13590;SDS011;6866;50.778;7.206;2022-07-19T06:43:56;13.57;;;3.28;;
13590;SDS011;6866;50.778;7.206;2022-07-19T06:46:21;26.85;;;3.85;;
13590;SDS011;6866;50.778;7.206;2022-07-19T06:48:47;12.40;;;3.28;;
13590;SDS011;6866;50.778;7.206;2022-07-19T06:51:12;15.02;;;3.55;;
13590;SDS011;6866;50.778;7.206;2022-07-19T06:53:38;17.33;;;3.83;;
13590;SDS011;6866;50.778;7.206;2022-07-19T06:56:03;21.58;;;3.95;;
13590;SDS011;6866;50.778;7.206;2022-07-19T06:58:29;19.30;;;3.38;;
13590;SDS011;6866;50.778;7.206;2022-07-19T07:00:55;12.15;;;2.83;;
13590;SDS011;6866;50.778;7.206;2022-07-19T07:03:20;11.43;;;3.17;;
13590;SDS011;6866;50.778;7.206;2022-07-19T07:05:46;15.10;;;3.05;;
13590;SDS011;6866;50.778;7.206;2022-07-19T07:08:11;20.90;;;3.83;;
13590;SDS011;6866;50.778;7.206;2022-07-19T07:10:37;9.20;;;2.78;;
13590;SDS011;6866;50.778;7.206;2022-07-19T07:13:04;10.95;;;2.83;;
13590;SDS011;6866;50.778;7.206;2022-07-19T07:15:30;12.45;;;2.45;;
13590;SDS011;6866;50.778;7.206;2022-07-19T07:21:04;5.50;;;2.10;;
13590;SDS011;6866;50.778;7.206;2022-07-19T07:23:30;8.35;;;2.40;;
13590;SDS011;6866;50.778;7.206;2022-07-19T07:25:55;4.63;;;2.20;;
13590;SDS011;6866;50.778;7.206;2022-07-19T07:28:21;9.70;;;2.53;;
13590;SDS011;6866;50.778;7.206;2022-07-19T07:30:46;11.77;;;3.20;;
13590;SDS011;6866;50.778;7.206;2022-07-19T07:33:12;4.93;;;2.10;;
13590;SDS011;6866;50.778;7.206;2022-07-19T07:35:37;11.68;;;2.25;;
13590;SDS011;6866;50.778;7.206;2022-07-19T07:38:03;4.63;;;2.00;;
13590;SDS011;6866;50.778;7.206;2022-07-19T07:40:28;8.90;;;2.22;;
13590;SDS011;6866;50.778;7.206;2022-07-19T07:42:54;10.30;;;2.53;;
13590;SDS011;6866;50.778;7.206;2022-07-19T07:45:19;7.28;;;2.20;;
13590;SDS011;6866;50.778;7.206;2022-07-19T07:47:45;15.80;;;2.60;;
13590;SDS011;6866;50.778;7.206;2022-07-19T07:50:10;15.23;;;3.20;;
13590;SDS011;6866;50.778;7.206;2022-07-19T07:52:36;14.07;;;2.55;;
13590;SDS011;6866;50.778;7.206;2022-07-19T07:55:02;10.27;;;2.75;;
13590;SDS011;6866;50.778;7.206;2022-07-19T07:57:28;10.73;;;2.30;;
13590;SDS011;6866;50.778;7.206;2022-07-19T07:59:54;11.07;;;2.45;;
13590;SDS011;6866;50.778;7.206;2022-07-19T08:02:20;8.23;;;1.98;;
13590;SDS011;6866;50.778;7.206;2022-07-19T08:04:45;8.15;;;2.15;;
13590;SDS011;6866;50.778;7.206;2022-07-19T08:07:11;6.53;;;1.92;;
13590;SDS011;6866;50.778;7.206;2022-07-19T08:09:36;7.30;;;2.40;;
13590;SDS011;6866;50.778;7.206;2022-07-19T08:12:02;11.60;;;2.20;;
13590;SDS011;6866;50.778;7.206;2022-07-19T08:14:27;12.02;;;2.58;;
13590;SDS011;6866;50.778;7.206;2022-07-19T08:16:53;5.70;;;2.38;;
13590;SDS011;6866;50.778;7.206;2022-07-19T08:19:19;4.18;;;1.95;;
13590;SDS011;6866;50.778;7.206;2022-07-19T08:21:44;5.57;;;1.90;;
13590;SDS011;6866;50.778;7.206;2022-07-19T08:24:10;7.35;;;2.13;;
13590;SDS011;6866;50.778;7.206;2022-07-19T08:26:35;7.22;;;2.20;;
13590;SDS011;6866;50.778;7.206;2022-07-19T08:29:01;4.88;;;1.85;;
13590;SDS011;6866;50.778;7.206;2022-07-19T08:31:27;5.25;;;2.10;;
13590;SDS011;6866;50.778;7.206;2022-07-19T08:33:52;9.88;;;2.13;;
13590;SDS011;6866;50.778;7.206;2022-07-19T08:36:18;7.13;;;1.88;;
13590;SDS011;6866;50.778;7.206;2022-07-19T08:38:43;7.43;;;2.00;;
13590;SDS011;6866;50.778;7.206;2022-07-19T08:41:11;7.47;;;2.05;;
13590;SDS011;6866;50.778;7.206;2022-07-19T08:43:38;4.15;;;1.63;;
13590;SDS011;6866;50.778;7.206;2022-07-19T08:46:04;5.68;;;1.90;;
13590;SDS011;6866;50.778;7.206;2022-07-19T08:48:34;9.30;;;2.00;;
13590;SDS011;6866;50.778;7.206;2022-07-19T08:51:01;8.25;;;1.88;;
13590;SDS011;6866;50.778;7.206;2022-07-19T08:53:31;6.75;;;1.90;;
13590;SDS011;6866;50.778;7.206;2022-07-19T08:56:00;6.18;;;1.83;;
13590;SDS011;6866;50.778;7.206;2022-07-19T08:58:26;9.38;;;1.77;;
13590;SDS011;6866;50.778;7.206;2022-07-19T09:00:52;10.15;;;1.70;;
13590;SDS011;6866;50.778;7.206;2022-07-19T09:03:17;9.15;;;2.05;;
13590;SDS011;6866;50.778;7.206;2022-07-19T09:05:43;5.93;;;1.60;;
13590;SDS011;6866;50.778;7.206;2022-07-19T09:08:13;6.32;;;1.80;;
13590;SDS011;6866;50.778;7.206;2022-07-19T09:10:42;8.70;;;1.88;;
13590;SDS011;6866;50.778;7.206;2022-07-19T09:13:30;10.68;;;2.38;;
13590;SDS011;6866;50.778;7.206;2022-07-19T09:15:55;10.85;;;2.17;;
13590;SDS011;6866;50.778;7.206;2022-07-19T09:20:58;5.95;;;1.80;;
13590;SDS011;6866;50.778;7.206;2022-07-19T09:23:27;7.32;;;2.00;;
13590;SDS011;6866;50.778;7.206;2022-07-19T09:25:56;7.50;;;1.88;;
13590;SDS011;6866;50.778;7.206;2022-07-19T09:28:24;4.15;;;1.60;;
13590;SDS011;6866;50.778;7.206;2022-07-19T09:30:52;10.60;;;2.00;;
13590;SDS011;6866;50.778;7.206;2022-07-19T09:35:53;5.60;;;1.60;;
13590;SDS011;6866;50.778;7.206;2022-07-19T09:38:27;11.13;;;2.17;;
13590;SDS011;6866;50.778;7.206;2022-07-19T09:41:15;6.78;;;1.80;;
13590;SDS011;6866;50.778;7.206;2022-07-19T09:43:55;9.38;;;1.90;;
13590;SDS011;6866;50.778;7.206;2022-07-19T09:46:27;6.22;;;1.70;;
13590;SDS011;6866;50.778;7.206;2022-07-19T09:49:06;4.82;;;1.70;;
13590;SDS011;6866;50.778;7.206;2022-07-19T09:51:34;6.28;;;1.80;;
13590;SDS011;6866;50.778;7.206;2022-07-19T09:54:05;5.68;;;1.80;;
13590;SDS011;6866;50.778;7.206;2022-07-19T09:56:32;4.93;;;1.90;;
13590;SDS011;6866;50.778;7.206;2022-07-19T09:58:58;5.88;;;1.80;;
13590;SDS011;6866;50.778;7.206;2022-07-19T10:01:24;7.10;;;1.98;;
13590;SDS011;6866;50.778;7.206;2022-07-19T10:03:56;5.13;;;1.90;;
13590;SDS011;6866;50.778;7.206;2022-07-19T10:06:26;6.47;;;1.98;;
13590;SDS011;6866;50.778;7.206;2022-07-19T10:08:54;7.18;;;2.10;;
13590;SDS011;6866;50.778;7.206;2022-07-19T10:11:21;6.00;;;1.77;;
13590;SDS011;6866;50.778;7.206;2022-07-19T10:13:50;4.97;;;1.90;;
13590;SDS011;6866;50.778;7.206;2022-07-19T10:16:18;9.20;;;2.45;;
13590;SDS011;6866;50.778;7.206;2022-07-19T10:18:52;5.65;;;2.20;;
13590;SDS011;6866;50.778;7.206;2022-07-19T10:24:06;4.72;;;1.85;;
13590;SDS011;6866;50.778;7.206;2022-07-19T10:29:06;6.93;;;1.73;;
13590;SDS011;6866;50.778;7.206;2022-07-19T10:32:03;4.05;;;1.70;;
13590;SDS011;6866;50.778;7.206;2022-07-19T10:34:30;8.88;;;1.98;;
13590;SDS011;6866;50.778;7.206;2022-07-19T10:36:56;4.88;;;1.77;;
13590;SDS011;6866;50.778;7.206;2022-07-19T10:39:23;5.78;;;1.80;;
13590;SDS011;6866;50.778;7.206;2022-07-19T10:50:03;6.35;;;1.63;;
13590;SDS011;6866;50.778;7.206;2022-07-19T10:52:39;5.82;;;1.92;;
13590;SDS011;6866;50.778;7.206;2022-07-19T11:00:30;4.15;;;1.77;;
13590;SDS011;6866;50.778;7.206;2022-07-19T11:08:16;4.30;;;1.80;;
13590;SDS011;6866;50.778;7.206;2022-07-19T11:10:42;4.80;;;1.73;;
13590;SDS011;6866;50.778;7.206;2022-07-19T11:13:08;8.20;;;1.92;;
13590;SDS011;6866;50.778;7.206;2022-07-19T11:15:34;4.93;;;1.67;;
13590;SDS011;6866;50.778;7.206;2022-07-19T11:18:04;3.78;;;1.70;;
13590;SDS011;6866;50.778;7.206;2022-07-19T11:20:32;9.65;;;1.90;;
13590;SDS011;6866;50.778;7.206;2022-07-19T11:23:00;7.68;;;2.20;;
13590;SDS011;6866;50.778;7.206;2022-07-19T11:25:35;6.30;;;1.88;;
13590;SDS011;6866;50.778;7.206;2022-07-19T11:28:04;5.15;;;1.77;;
13590;SDS011;6866;50.778;7.206;2022-07-19T11:30:30;6.93;;;1.80;;
13590;SDS011;6866;50.778;7.206;2022-07-19T11:32:59;6.45;;;1.90;;
13590;SDS011;6866;50.778;7.206;2022-07-19T11:35:26;10.38;;;2.17;;
13590;SDS011;6866;50.778;7.206;2022-07-19T11:37:53;5.50;;;1.98;;
13590;SDS011;6866;50.778;7.206;2022-07-19T11:40:21;11.38;;;2.30;;
13590;SDS011;6866;50.778;7.206;2022-07-19T11:42:48;4.47;;;1.88;;
13590;SDS011;6866;50.778;7.206;2022-07-19T11:45:16;6.47;;;1.75;;
13590;SDS011;6866;50.778;7.206;2022-07-19T11:47:47;4.43;;;1.67;;
13590;SDS011;6866;50.778;7.206;2022-07-19T11:50:15;4.40;;;1.60;;
13590;SDS011;6866;50.778;7.206;2022-07-19T11:52:43;5.55;;;1.75;;
13590;SDS011;6866;50.778;7.206;2022-07-19T11:55:14;6.97;;;1.95;;
13590;SDS011;6866;50.778;7.206;2022-07-19T11:57:41;5.38;;;1.77;;
13590;SDS011;6866;50.778;7.206;2022-07-19T12:00:07;4.50;;;1.75;;
13590;SDS011;6866;50.778;7.206;2022-07-19T12:05:22;7.20;;;1.85;;
13590;SDS011;6866;50.778;7.206;2022-07-19T12:07:49;5.95;;;2.10;;
13590;SDS011;6866;50.778;7.206;2022-07-19T12:13:12;6.65;;;2.00;;
13590;SDS011;6866;50.778;7.206;2022-07-19T12:18:12;3.97;;;1.80;;
13590;SDS011;6866;50.778;7.206;2022-07-19T12:20:38;6.22;;;1.77;;
13590;SDS011;6866;50.778;7.206;2022-07-19T12:23:36;5.97;;;1.98;;
13590;SDS011;6866;50.778;7.206;2022-07-19T12:26:01;5.85;;;2.17;;
13590;SDS011;6866;50.778;7.206;2022-07-19T12:28:29;4.25;;;1.88;;
13590;SDS011;6866;50.778;7.206;2022-07-19T12:31:03;4.55;;;2.05;;
13590;SDS011;6866;50.778;7.206;2022-07-19T12:33:31;6.60;;;2.05;;
13590;SDS011;6866;50.778;7.206;2022-07-19T12:35:57;5.65;;;2.00;;
13590;SDS011;6866;50.778;7.206;2022-07-19T12:38:33;4.75;;;1.90;;
13590;SDS011;6866;50.778;7.206;2022-07-19T12:41:08;11.10;;;2.15;;
13590;SDS011;6866;50.778;7.206;2022-07-19T12:43:34;6.43;;;2.30;;
13590;SDS011;6866;50.778;7.206;2022-07-19T12:48:26;6.20;;;2.20;;
13590;SDS011;6866;50.778;7.206;2022-07-19T12:50:52;7.20;;;2.00;;
13590;SDS011;6866;50.778;7.206;2022-07-19T12:53:19;4.68;;;2.17;;
13590;SDS011;6866;50.778;7.206;2022-07-19T12:55:45;6.57;;;2.20;;
13590;SDS011;6866;50.778;7.206;2022-07-19T12:58:12;8.75;;;2.17;;
13590;SDS011;6866;50.778;7.206;2022-07-19T13:00:39;8.02;;;2.40;;
13590;SDS011;6866;50.778;7.206;2022-07-19T13:03:07;5.15;;;1.90;;
13590;SDS011;6866;50.778;7.206;2022-07-19T13:05:33;4.88;;;1.80;;
13590;SDS011;6866;50.778;7.206;2022-07-19T13:08:00;6.35;;;2.13;;
13590;SDS011;6866;50.778;7.206;2022-07-19T13:10:26;7.97;;;2.25;;
13590;SDS011;6866;50.778;7.206;2022-07-19T13:12:52;6.28;;;2.30;;
13590;SDS011;6866;50.778;7.206;2022-07-19T13:15:18;9.57;;;2.13;;
13590;SDS011;6866;50.778;7.206;2022-07-19T13:20:11;8.43;;;2.42;;
13590;SDS011;6866;50.778;7.206;2022-07-19T13:22:38;7.25;;;2.10;;
13590;SDS011;6866;50.778;7.206;2022-07-19T13:25:06;5.95;;;2.22;;
13590;SDS011;6866;50.778;7.206;2022-07-19T13:27:32;4.47;;;1.80;;
13590;SDS011;6866;50.778;7.206;2022-07-19T13:29:58;7.83;;;2.27;;
13590;SDS011;6866;50.778;7.206;2022-07-19T13:32:24;6.32;;;2.20;;
13590;SDS011;6866;50.778;7.206;2022-07-19T13:34:49;5.80;;;2.25;;
13590;SDS011;6866;50.778;7.206;2022-07-19T13:37:15;6.15;;;2.40;;
13590;SDS011;6866;50.778;7.206;2022-07-19T13:39:40;7.05;;;2.33;;
13590;SDS011;6866;50.778;7.206;2022-07-19T13:42:07;7.10;;;2.50;;
13590;SDS011;6866;50.778;7.206;2022-07-19T13:44:32;8.17;;;2.40;;
13590;SDS011;6866;50.778;7.206;2022-07-19T13:46:58;5.03;;;2.20;;
13590;SDS011;6866;50.778;7.206;2022-07-19T13:49:24;9.90;;;2.65;;
13590;SDS011;6866;50.778;7.206;2022-07-19T13:51:50;7.28;;;2.13;;
13590;SDS011;6866;50.778;7.206;2022-07-19T13:54:16;5.40;;;2.42;;
13590;SDS011;6866;50.778;7.206;2022-07-19T13:56:42;7.35;;;2.30;;
13590;SDS011;6866;50.778;7.206;2022-07-19T13:59:07;7.60;;;2.10;;
13590;SDS011;6866;50.778;7.206;2022-07-19T14:01:33;8.02;;;2.30;;
13590;SDS011;6866;50.778;7.206;2022-07-19T14:03:58;5.40;;;1.95;;
13590;SDS011;6866;50.778;7.206;2022-07-19T14:06:24;8.10;;;2.40;;
13590;SDS011;6866;50.778;7.206;2022-07-19T14:08:53;8.35;;;2.53;;
13590;SDS011;6866;50.778;7.206;2022-07-19T14:11:19;8.32;;;2.25;;
13590;SDS011;6866;50.778;7.206;2022-07-19T14:13:45;7.00;;;2.47;;
13590;SDS011;6866;50.778;7.206;2022-07-19T14:16:10;5.95;;;2.38;;
13590;SDS011;6866;50.778;7.206;2022-07-19T14:18:36;4.70;;;2.20;;
13590;SDS011;6866;50.778;7.206;2022-07-19T14:21:02;6.57;;;2.20;;
13590;SDS011;6866;50.778;7.206;2022-07-19T14:23:28;6.28;;;2.00;;
13590;SDS011;6866;50.778;7.206;2022-07-19T14:25:54;5.72;;;2.30;;
13590;SDS011;6866;50.778;7.206;2022-07-19T14:28:19;10.40;;;2.25;;
13590;SDS011;6866;50.778;7.206;2022-07-19T14:30:45;4.93;;;2.20;;
13590;SDS011;6866;50.778;7.206;2022-07-19T14:33:11;3.70;;;2.10;;
13590;SDS011;6866;50.778;7.206;2022-07-19T14:35:37;6.18;;;2.25;;
13590;SDS011;6866;50.778;7.206;2022-07-19T14:38:03;4.78;;;2.30;;
13590;SDS011;6866;50.778;7.206;2022-07-19T14:42:54;5.03;;;2.10;;
13590;SDS011;6866;50.778;7.206;2022-07-19T14:45:20;5.85;;;2.60;;
13590;SDS011;6866;50.778;7.206;2022-07-19T14:47:45;4.95;;;2.20;;
13590;SDS011;6866;50.778;7.206;2022-07-19T14:50:12;5.50;;;2.25;;
13590;SDS011;6866;50.778;7.206;2022-07-19T14:52:38;5.80;;;2.33;;
13590;SDS011;6866;50.778;7.206;2022-07-19T14:55:05;7.38;;;2.58;;
13590;SDS011;6866;50.778;7.206;2022-07-19T14:57:31;7.75;;;2.03;;
13590;SDS011;6866;50.778;7.206;2022-07-19T14:59:57;5.53;;;2.25;;
13590;SDS011;6866;50.778;7.206;2022-07-19T15:02:23;6.68;;;2.20;;
13590;SDS011;6866;50.778;7.206;2022-07-19T15:04:49;4.30;;;2.20;;
13590;SDS011;6866;50.778;7.206;2022-07-19T15:07:15;9.63;;;2.17;;
13590;SDS011;6866;50.778;7.206;2022-07-19T15:09:41;8.95;;;2.88;;
13590;SDS011;6866;50.778;7.206;2022-07-19T15:12:07;7.10;;;2.38;;
13590;SDS011;6866;50.778;7.206;2022-07-19T15:14:32;7.53;;;2.67;;
13590;SDS011;6866;50.778;7.206;2022-07-19T15:16:59;6.38;;;2.50;;
13590;SDS011;6866;50.778;7.206;2022-07-19T15:19:25;6.32;;;2.17;;
13590;SDS011;6866;50.778;7.206;2022-07-19T15:21:52;9.98;;;2.60;;
13590;SDS011;6866;50.778;7.206;2022-07-19T15:24:18;7.20;;;2.42;;
13590;SDS011;6866;50.778;7.206;2022-07-19T15:26:44;6.97;;;2.65;;
13590;SDS011;6866;50.778;7.206;2022-07-19T15:29:11;6.55;;;2.38;;
13590;SDS011;6866;50.778;7.206;2022-07-19T15:31:36;7.80;;;2.20;;
13590;SDS011;6866;50.778;7.206;2022-07-19T15:34:02;9.43;;;2.47;;
13590;SDS011;6866;50.778;7.206;2022-07-19T15:36:28;5.63;;;2.38;;
13590;SDS011;6866;50.778;7.206;2022-07-19T15:38:54;6.20;;;2.40;;
13590;SDS011;6866;50.778;7.206;2022-07-19T15:41:20;8.68;;;2.38;;
13590;SDS011;6866;50.778;7.206;2022-07-19T15:43:46;6.05;;;2.78;;
13590;SDS011;6866;50.778;7.206;2022-07-19T15:46:12;5.18;;;2.63;;
13590;SDS011;6866;50.778;7.206;2022-07-19T15:48:38;5.07;;;2.40;;